Time;durP1;ratioP1;P1;durP2;ratioP2;P2;SDS_P1;SDS_P2;PMS_P1;PMS_P2;Temp;Humidity;BMP_temperature;BMP_pressure;BME280_temperature;BME280_humidity;BME280_pressure;Samples;Min_cycle;Max_cycle;Signal;HPM_P1;HPM_P2
2022/11/11 00:00:32;;;;;;;3.43;2.30;;;5.90;99.90;5.70;101913.00;;;;4880531;28;112112;-62
2022/11/11 00:02:58;;;;;;;3.60;2.60;;;5.90;99.90;5.70;101921.00;;;;4888349;28;94397;-63
2022/11/11 00:05:25;;;;;;;5.07;2.07;;;5.90;99.90;5.70;101919.00;;;;4879641;28;99223;-62
2022/11/11 00:08:01;;;;;;;2.40;1.87;;;5.90;99.90;5.70;101930.00;;;;4879144;28;105960;-61
2022/11/11 00:10:29;;;;;;;2.93;1.83;;;5.90;99.90;5.70;101922.00;;;;4878795;28;88793;-62
2022/11/11 00:13:02;;;;;;;3.33;3.03;;;5.90;99.90;5.70;101931.00;;;;4881347;28;98079;-63
2022/11/11 00:15:29;;;;;;;3.77;2.70;;;5.90;99.90;5.70;101933.00;;;;4880128;28;87965;-63
2022/11/11 00:26:28;;;;;;;3.23;2.40;;;5.80;99.90;5.60;101930.00;;;;4915606;28;87967;-63
2022/11/11 00:28:53;;;;;;;4.93;2.73;;;5.80;99.90;5.50;101921.00;;;;4888878;28;109580;-64
2022/11/11 00:31:19;;;;;;;4.63;2.27;;;5.70;99.90;5.50;101927.00;;;;4882864;28;100296;-64
2022/11/11 00:33:44;;;;;;;5.00;2.50;;;5.70;99.90;5.50;101929.00;;;;4885307;28;111061;-63
2022/11/11 00:36:10;;;;;;;2.33;2.00;;;5.70;99.90;5.40;101922.00;;;;4891552;28;108333;-63
2022/11/11 00:38:45;;;;;;;2.37;2.13;;;5.60;99.90;5.30;101924.00;;;;4882030;28;117061;-63
2022/11/11 00:41:17;;;;;;;4.27;2.50;;;5.60;99.90;5.30;101925.00;;;;4880983;28;88998;-63
2022/11/11 00:43:45;;;;;;;2.13;1.93;;;5.50;99.90;5.20;101927.00;;;;4882602;28;87745;-62
2022/11/11 00:51:44;;;;;;;2.67;2.40;;;5.90;99.90;5.10;101917.00;;;;4882073;28;88153;-63
2022/11/11 00:54:10;;;;;;;2.27;2.03;;;5.40;99.90;5.10;101917.00;;;;4882244;28;88136;-63
2022/11/11 00:56:37;;;;;;;3.00;2.30;;;5.30;99.90;5.00;101919.00;;;;4883589;28;92510;-63
2022/11/11 00:59:05;;;;;;;3.23;2.83;;;5.80;99.90;5.00;101920.00;;;;4883547;28;89012;-62
2022/11/11 01:01:33;;;;;;;3.67;2.63;;;5.20;99.90;5.00;101922.00;;;;4881072;28;89407;-62
2022/11/11 01:03:59;;;;;;;4.03;1.87;;;5.20;99.90;4.90;101907.00;;;;4876814;28;87233;-63
2022/11/11 01:06:25;;;;;;;5.57;2.40;;;5.10;99.90;4.90;101905.00;;;;4883011;28;87922;-64
2022/11/11 01:08:51;;;;;;;2.30;2.10;;;5.10;99.90;4.90;101909.00;;;;4888469;28;88192;-62
2022/11/11 01:11:21;;;;;;;3.80;2.13;;;5.10;99.90;4.80;101902.00;;;;4885004;28;88757;-63
2022/11/11 01:13:48;;;;;;;2.87;1.90;;;5.00;99.90;4.80;101901.00;;;;4896063;28;88915;-63
2022/11/11 01:16:24;;;;;;;5.83;2.57;;;5.00;99.90;4.80;101909.00;;;;4887192;28;87761;-62
2022/11/11 01:18:52;;;;;;;2.87;2.47;;;5.00;99.90;4.80;101908.00;;;;4883220;28;96163;-63
2022/11/11 01:21:23;;;;;;;3.10;2.03;;;5.00;99.90;4.80;101915.00;;;;4887834;28;88423;-62
2022/11/11 01:23:51;;;;;;;4.23;2.47;;;5.00;99.90;4.70;101906.00;;;;4883285;28;103844;-61
2022/11/11 01:26:21;;;;;;;1.33;1.23;;;4.90;99.90;4.70;101916.00;;;;4891849;28;87695;-61
2022/11/11 01:28:52;;;;;;;2.00;1.70;;;4.90;99.90;4.70;101916.00;;;;4882737;28;110693;-62
2022/11/11 01:31:20;;;;;;;1.50;1.33;;;4.90;99.90;4.60;101925.00;;;;4881950;28;101862;-62
2022/11/11 01:33:46;;;;;;;1.60;1.10;;;4.90;99.90;4.60;101920.00;;;;4879106;28;91777;-61
2022/11/11 01:36:16;;;;;;;4.13;1.30;;;4.90;99.90;4.60;101916.00;;;;4884727;28;88934;-63
2022/11/11 01:38:42;;;;;;;2.40;1.13;;;4.80;99.90;4.60;101917.00;;;;4881608;28;88554;-63
2022/11/11 01:41:31;;;;;;;2.20;1.93;;;4.80;99.90;4.50;101912.00;;;;4876380;28;102252;-63
2022/11/11 01:44:39;;;;;;;1.93;1.70;;;4.80;99.90;4.50;101902.00;;;;4882585;28;88020;-61
2022/11/11 01:47:06;;;;;;;5.07;1.90;;;4.70;99.90;4.50;101912.00;;;;4879028;28;87934;-63
2022/11/11 01:49:44;;;;;;;3.93;1.77;;;4.70;99.90;4.50;101900.00;;;;4893465;28;117192;-64
2022/11/11 01:52:26;;;;;;;2.80;2.23;;;4.70;99.90;4.50;101894.00;;;;4882272;28;109245;-63
2022/11/11 01:55:09;;;;;;;2.43;1.67;;;4.70;99.90;4.50;101895.00;;;;4879434;28;87128;-63
2022/11/11 01:58:08;;;;;;;1.63;1.53;;;4.70;99.90;4.60;101902.00;;;;4879117;28;87862;-63
2022/11/11 02:00:34;;;;;;;1.83;1.73;;;4.80;99.90;4.70;101890.00;;;;4896053;28;109519;-65
2022/11/11 02:03:06;;;;;;;3.33;2.00;;;4.90;99.90;4.80;101891.00;;;;4877445;28;117371;-62
2022/11/11 02:05:41;;;;;;;4.07;2.60;;;5.00;99.90;4.90;101877.00;;;;4876852;28;87773;-62
2022/11/11 02:08:39;;;;;;;2.57;1.97;;;5.00;99.90;5.00;101885.00;;;;4878726;28;87801;-62
2022/11/11 02:11:15;;;;;;;7.43;2.43;;;5.10;99.90;5.10;101881.00;;;;4874824;28;88237;-63
2022/11/11 02:16:27;;;;;;;2.17;1.87;;;5.40;99.90;5.30;101883.00;;;;4878966;28;87827;-63
2022/11/11 02:18:53;;;;;;;2.37;2.13;;;5.40;99.90;5.40;101892.00;;;;4884506;28;87937;-60
2022/11/11 02:21:46;;;;;;;1.90;1.77;;;5.60;99.90;5.30;101884.00;;;;4879505;28;87585;-63
2022/11/11 02:24:16;;;;;;;6.43;1.70;;;5.50;99.90;5.30;101878.00;;;;4893548;28;111260;-64
2022/11/11 02:26:44;;;;;;;2.13;1.77;;;5.50;99.90;5.30;101894.00;;;;4877861;28;87784;-63
2022/11/11 02:29:16;;;;;;;1.87;1.63;;;5.50;99.90;5.20;101900.00;;;;4882543;28;98591;-63
2022/11/11 02:31:42;;;;;;;2.63;1.87;;;5.50;99.90;5.20;101891.00;;;;4881346;28;110944;-64
2022/11/11 02:34:07;;;;;;;2.17;1.40;;;5.40;99.90;5.20;101901.00;;;;4882706;28;117437;-63
2022/11/11 02:36:33;;;;;;;2.80;1.60;;;5.40;99.90;5.10;101889.00;;;;4877290;28;110433;-62
2022/11/11 02:38:59;;;;;;;3.03;1.63;;;5.30;99.90;5.10;101890.00;;;;4883440;28;108613;-63
2022/11/11 02:44:09;;;;;;;1.67;1.10;;;5.30;99.90;5.00;101889.00;;;;4878717;28;87968;-62
2022/11/11 02:46:35;;;;;;;0.83;0.67;;;5.30;99.90;5.00;101895.00;;;;4881049;28;107678;-62
2022/11/11 02:49:00;;;;;;;4.20;2.30;;;5.20;99.90;5.00;101906.00;;;;4887555;28;107449;-62
2022/11/11 02:51:26;;;;;;;6.40;3.33;;;5.20;99.90;5.00;101892.00;;;;4886283;28;117844;-62
2022/11/11 02:53:57;;;;;;;2.40;2.20;;;5.20;99.90;5.00;101908.00;;;;4883452;28;117548;-64
2022/11/11 02:59:10;;;;;;;6.13;3.30;;;5.10;99.90;4.90;101903.00;;;;4879704;28;87978;-63
2022/11/11 03:01:36;;;;;;;5.10;2.83;;;5.10;99.90;4.90;101910.00;;;;4881445;28;116003;-61
2022/11/11 03:04:01;;;;;;;3.93;2.80;;;5.20;99.90;4.90;101914.00;;;;4882263;28;115661;-62
2022/11/11 03:06:27;;;;;;;4.40;1.87;;;5.20;99.90;4.90;101919.00;;;;4880479;28;102354;-62
2022/11/11 03:08:53;;;;;;;9.63;2.73;;;5.20;99.90;4.90;101911.00;;;;4881549;28;108579;-63
2022/11/11 03:11:26;;;;;;;2.80;2.30;;;5.20;99.90;4.90;101922.00;;;;4882641;28;116791;-61
2022/11/11 03:13:56;;;;;;;2.87;2.17;;;5.10;99.90;4.90;101922.00;;;;4887513;28;87983;-61
2022/11/11 03:19:07;;;;;;;3.70;2.67;;;5.00;99.90;4.80;101919.00;;;;4883723;28;88818;-62
2022/11/11 03:21:33;;;;;;;4.20;2.47;;;5.00;99.90;4.80;101919.00;;;;4882145;28;117376;-62
2022/11/11 03:23:58;;;;;;;5.40;2.47;;;5.00;99.90;4.80;101915.00;;;;4884290;28;88184;-61
2022/11/11 03:26:24;;;;;;;8.97;2.47;;;5.00;99.90;4.80;101917.00;;;;4881422;28;110434;-63
2022/11/11 03:28:50;;;;;;;3.43;2.37;;;5.00;99.90;4.70;101920.00;;;;4884425;28;108728;-63
2022/11/11 03:31:16;;;;;;;4.20;2.47;;;5.00;99.90;4.70;101922.00;;;;4884538;28;115729;-63
2022/11/11 03:33:41;;;;;;;3.30;2.10;;;5.00;99.90;4.70;101918.00;;;;4885608;28;101314;-62
2022/11/11 03:36:07;;;;;;;5.17;2.63;;;4.90;99.90;4.60;101923.00;;;;4881600;28;110709;-61
2022/11/11 03:38:33;;;;;;;4.20;2.30;;;4.90;99.90;4.60;101926.00;;;;4887253;28;88022;-62
2022/11/11 03:40:59;;;;;;;3.00;2.40;;;4.80;99.90;4.60;101934.00;;;;4888122;28;118709;-64
2022/11/11 03:43:31;;;;;;;2.77;1.57;;;4.80;99.90;4.50;101932.00;;;;4891288;28;88983;-63
2022/11/11 03:45:59;;;;;;;1.97;1.77;;;4.80;99.90;4.50;101934.00;;;;4887329;28;87872;-61
2022/11/11 03:48:28;;;;;;;2.77;2.33;;;4.80;99.90;4.50;101922.00;;;;4882364;28;102879;-64
2022/11/11 03:50:54;;;;;;;9.07;2.60;;;4.70;99.90;4.40;101928.00;;;;4883707;28;87709;-61
2022/11/11 03:53:20;;;;;;;2.80;1.53;;;6.10;99.90;4.40;101933.00;;;;4884151;28;117066;-63
2022/11/11 03:55:47;;;;;;;2.10;1.90;;;4.90;99.90;4.40;101936.00;;;;4884167;28;88047;-62
2022/11/11 03:58:13;;;;;;;2.27;2.07;;;4.60;99.90;4.40;101935.00;;;;4886781;28;87804;-63
2022/11/11 04:00:39;;;;;;;3.33;1.73;;;4.60;99.90;4.30;101929.00;;;;4897308;28;91749;-62
2022/11/11 04:11:35;;;;;;;1.77;1.63;;;4.50;99.90;4.30;101914.00;;;;4886114;28;87871;-62
2022/11/11 04:16:50;;;;;;;5.33;2.53;;;4.50;99.90;4.30;101913.00;;;;4879690;28;87823;-63
2022/11/11 04:22:00;;;;;;;3.20;2.33;;;4.50;99.90;4.30;101916.00;;;;4882149;28;87916;-63
2022/11/11 04:27:16;;;;;;;2.87;1.87;;;4.50;99.90;4.20;101916.00;;;;4881099;28;87195;-61
2022/11/11 04:29:42;;;;;;;1.90;1.70;;;4.50;99.90;4.30;101910.00;;;;4884351;28;97655;-65
2022/11/11 04:34:58;;;;;;;3.80;1.77;;;4.50;99.90;4.20;101903.00;;;;4878741;28;88772;-61
2022/11/11 04:37:27;;;;;;;2.47;2.07;;;4.40;99.90;4.20;101899.00;;;;4882028;28;87864;-62
2022/11/11 04:42:40;;;;;;;3.80;1.90;;;4.50;99.90;4.20;101897.00;;;;4881391;28;87913;-62
2022/11/11 04:48:02;;;;;;;2.27;1.63;;;4.40;99.90;4.20;101903.00;;;;4881328;28;88024;-60
2022/11/11 04:50:40;;;;;;;3.40;1.83;;;4.40;99.90;4.20;101898.00;;;;4886282;28;87774;-62
2022/11/11 04:53:10;;;;;;;2.40;1.87;;;4.40;99.90;4.20;101890.00;;;;4885777;28;92519;-61
2022/11/11 04:58:24;;;;;;;6.07;1.87;;;4.50;99.90;4.30;101878.00;;;;4880615;28;87946;-62
2022/11/11 05:00:50;;;;;;;1.57;1.47;;;4.50;99.90;4.30;101877.00;;;;4882722;28;88619;-62
2022/11/11 05:03:19;;;;;;;2.30;1.57;;;4.50;99.90;4.30;101889.00;;;;4884666;28;89164;-62
2022/11/11 05:08:55;;;;;;;3.67;2.30;;;4.50;99.90;4.30;101890.00;;;;4893096;28;88114;-62
2022/11/11 05:11:29;;;;;;;2.47;2.07;;;4.60;99.90;4.30;101873.00;;;;4879768;28;87847;-63
2022/11/11 05:22:23;;;;;;;1.87;1.20;;;4.60;99.90;4.40;101908.00;;;;4880565;28;87840;-62
2022/11/11 05:27:33;;;;;;;1.60;1.43;;;4.60;99.90;4.50;101907.00;;;;4879765;28;88766;-63
2022/11/11 05:29:59;;;;;;;4.90;2.03;;;4.70;99.90;4.50;101901.00;;;;4880963;28;110805;-63
2022/11/11 05:32:25;;;;;;;1.83;1.60;;;4.70;99.90;4.50;101897.00;;;;4879837;28;108573;-63
2022/11/11 05:34:51;;;;;;;2.63;2.10;;;4.70;99.90;4.60;101890.00;;;;4885174;28;88852;-60
2022/11/11 05:37:17;;;;;;;2.47;1.83;;;5.30;99.90;4.60;101902.00;;;;4876763;28;88406;-62
2022/11/11 05:39:43;;;;;;;3.33;2.20;;;4.80;99.90;4.60;101880.00;;;;4878424;28;111240;-62
2022/11/11 05:42:10;;;;;;;10.30;2.67;;;4.80;99.90;4.60;101879.00;;;;4877110;28;87857;-61
2022/11/11 05:44:36;;;;;;;1.37;1.27;;;4.80;99.90;4.60;101872.00;;;;4877247;28;87963;-62
2022/11/11 05:47:02;;;;;;;3.57;2.17;;;5.30;99.90;4.60;101871.00;;;;4878599;28;87906;-62
2022/11/11 05:49:28;;;;;;;2.17;1.87;;;4.80;99.90;4.60;101880.00;;;;4880724;28;110413;-62
2022/11/11 05:51:56;;;;;;;3.43;1.70;;;4.70;99.90;4.50;101874.00;;;;4886444;28;89085;-61
2022/11/11 05:54:23;;;;;;;2.03;1.63;;;4.80;99.90;4.50;101875.00;;;;4876237;28;88262;-62
2022/11/11 05:56:49;;;;;;;3.33;2.00;;;4.80;99.90;4.50;101887.00;;;;4875672;28;116569;-62
2022/11/11 05:59:15;;;;;;;2.50;2.13;;;4.90;99.90;4.50;101881.00;;;;4878034;28;105232;-62
2022/11/11 06:01:41;;;;;;;2.00;1.80;;;4.70;99.90;4.50;101889.00;;;;4877034;28;105980;-62
2022/11/11 06:04:07;;;;;;;1.93;1.63;;;4.70;99.90;4.50;101890.00;;;;4883387;28;88033;-61
2022/11/11 06:06:34;;;;;;;2.47;2.27;;;5.10;99.90;4.50;101896.00;;;;4877906;28;94169;-63
2022/11/11 06:09:00;;;;;;;3.60;1.57;;;4.70;99.90;4.50;101897.00;;;;4879524;28;87217;-61
2022/11/11 06:11:27;;;;;;;3.63;2.43;;;4.70;99.90;4.50;101911.00;;;;4879759;28;98222;-62
2022/11/11 06:13:53;;;;;;;1.53;1.30;;;4.70;99.90;4.40;101909.00;;;;4877902;28;88987;-62
2022/11/11 06:16:19;;;;;;;2.77;2.40;;;4.70;99.90;4.40;101900.00;;;;4877821;28;89266;-62
2022/11/11 06:18:45;;;;;;;4.57;2.53;;;4.60;99.90;4.40;101915.00;;;;4881648;28;108916;-61
2022/11/11 06:21:11;;;;;;;3.07;2.77;;;4.60;99.90;4.40;101914.00;;;;4880009;28;87700;-62
2022/11/11 06:23:37;;;;;;;4.17;2.57;;;4.60;99.90;4.40;101922.00;;;;4880801;28;117525;-61
2022/11/11 06:26:12;;;;;;;3.20;2.57;;;4.70;99.90;4.40;101909.00;;;;4880029;28;118688;-62
2022/11/11 06:28:46;;;;;;;3.57;2.50;;;4.70;99.90;4.40;101914.00;;;;4885907;28;87717;-64
2022/11/11 06:31:16;;;;;;;3.67;2.80;;;4.60;99.90;4.40;101913.00;;;;4883900;28;87785;-61
2022/11/11 06:33:42;;;;;;;2.97;2.57;;;5.00;99.90;4.50;101918.00;;;;4881480;28;87474;-62
2022/11/11 06:36:12;;;;;;;2.53;2.33;;;4.70;99.90;4.50;101919.00;;;;4882957;28;101282;-61
2022/11/11 06:38:41;;;;;;;2.70;2.30;;;4.70;99.90;4.60;101914.00;;;;4885826;28;87983;-61
2022/11/11 06:41:08;;;;;;;2.97;2.57;;;4.70;99.90;4.70;101924.00;;;;4885604;28;107059;-62
2022/11/11 06:43:35;;;;;;;2.63;2.27;;;4.80;99.90;4.70;101932.00;;;;4881685;28;88796;-62
2022/11/11 06:46:00;;;;;;;4.53;3.27;;;4.90;99.90;4.80;101932.00;;;;4880363;28;112662;-60
2022/11/11 06:48:28;;;;;;;4.10;3.10;;;4.90;99.90;4.90;101950.00;;;;4883401;28;111281;-62
2022/11/11 06:50:55;;;;;;;2.60;2.40;;;5.00;99.90;4.90;101941.00;;;;4890251;28;87753;-61
2022/11/11 06:53:21;;;;;;;3.37;2.77;;;5.10;99.90;5.00;101945.00;;;;4893564;28;89037;-61
2022/11/11 06:55:50;;;;;;;7.17;4.27;;;5.10;99.90;5.10;101949.00;;;;4877783;28;95823;-60
2022/11/11 06:58:18;;;;;;;2.97;2.17;;;5.30;99.90;5.20;101957.00;;;;4881304;28;100401;-61
2022/11/11 07:00:46;;;;;;;2.90;2.67;;;5.40;99.90;5.40;101962.00;;;;4887487;28;100039;-61
2022/11/11 07:03:14;;;;;;;7.20;3.90;;;5.50;99.90;5.60;101965.00;;;;4880172;28;88367;-62
2022/11/11 07:05:41;;;;;;;5.43;3.63;;;5.60;99.90;5.80;101981.00;;;;4877249;28;88621;-61
2022/11/11 07:08:11;;;;;;;6.70;3.93;;;5.80;99.90;6.00;101981.00;;;;4880471;28;87930;-61
2022/11/11 07:10:42;;;;;;;17.80;4.60;;;6.00;99.90;6.30;101981.00;;;;4877829;28;101011;-62
2022/11/11 07:13:08;;;;;;;4.53;3.07;;;6.30;99.90;6.60;101986.00;;;;4879298;28;88289;-61
2022/11/11 07:15:35;;;;;;;16.37;7.93;;;6.60;99.90;7.00;101994.00;;;;4876157;28;118627;-62
2022/11/11 07:18:01;;;;;;;11.53;8.33;;;6.90;99.90;7.30;102004.00;;;;4885876;28;101770;-61
2022/11/11 07:20:26;;;;;;;6.90;4.57;;;7.70;99.90;7.60;101998.00;;;;4878220;28;110834;-61
2022/11/11 07:22:52;;;;;;;5.67;4.53;;;7.50;99.90;7.90;102000.00;;;;4879879;28;117411;-62
2022/11/11 07:25:18;;;;;;;3.50;3.13;;;7.80;99.90;8.10;101988.00;;;;4879567;28;117941;-61
2022/11/11 07:27:43;;;;;;;4.63;2.57;;;8.10;99.90;8.30;102012.00;;;;4882333;28;90764;-63
2022/11/11 07:30:11;;;;;;;6.63;3.30;;;8.30;99.90;8.50;102017.00;;;;4879664;28;108707;-62
2022/11/11 07:32:44;;;;;;;3.77;2.70;;;8.50;99.90;8.60;102025.00;;;;4880496;28;87954;-62
2022/11/11 07:35:10;;;;;;;2.43;2.20;;;8.60;99.90;8.70;102022.00;;;;4882713;28;88684;-63
2022/11/11 07:37:36;;;;;;;3.80;2.43;;;8.80;99.90;8.80;102022.00;;;;4884849;28;109181;-64
2022/11/11 07:40:03;;;;;;;4.40;3.20;;;8.90;99.90;8.90;102023.00;;;;4884440;28;87836;-63
2022/11/11 07:42:28;;;;;;;3.40;2.93;;;9.00;99.90;9.10;102030.00;;;;4883666;28;111532;-64
2022/11/11 07:44:54;;;;;;;3.73;2.40;;;9.10;99.90;9.10;102027.00;;;;4885198;28;117255;-63
2022/11/11 07:47:19;;;;;;;2.17;2.07;;;8.90;99.90;9.10;102035.00;;;;4884574;28;108744;-63
2022/11/11 07:49:45;;;;;;;3.73;2.37;;;9.20;99.90;9.10;102030.00;;;;4882059;28;106877;-63
2022/11/11 07:52:11;;;;;;;2.97;2.00;;;9.20;99.90;9.00;102027.00;;;;4890124;28;117360;-64
2022/11/11 07:54:36;;;;;;;4.30;2.73;;;9.20;99.90;9.00;102032.00;;;;4884542;28;89016;-65
2022/11/11 07:57:02;;;;;;;2.73;2.00;;;9.10;99.90;9.00;102037.00;;;;4884969;28;109454;-65
2022/11/11 07:59:28;;;;;;;4.80;2.33;;;9.10;99.90;8.90;102033.00;;;;4882155;28;108364;-64
2022/11/11 08:01:53;;;;;;;6.30;3.33;;;9.10;99.90;8.90;102027.00;;;;4887007;28;88841;-64
2022/11/11 08:04:19;;;;;;;6.10;2.23;;;9.10;99.90;8.90;102026.00;;;;4886268;28;116760;-64
2022/11/11 08:06:45;;;;;;;4.40;2.80;;;9.00;99.90;8.90;102026.00;;;;4883221;28;110244;-65
2022/11/11 08:09:10;;;;;;;3.30;2.30;;;9.00;99.90;8.90;102020.00;;;;4884262;28;108585;-63
2022/11/11 08:14:20;;;;;;;4.73;2.20;;;9.00;99.90;8.90;102020.00;;;;4885813;28;87907;-65
2022/11/11 08:16:45;;;;;;;4.20;2.87;;;9.00;99.90;9.10;102020.00;;;;4889213;28;110283;-64
2022/11/11 08:19:11;;;;;;;9.73;2.93;;;9.60;99.90;9.30;102030.00;;;;4885233;28;88949;-64
2022/11/11 08:21:37;;;;;;;4.67;3.00;;;9.30;99.90;9.50;102036.00;;;;4914149;28;116852;-64
2022/11/11 08:24:03;;;;;;;3.33;2.90;;;9.50;99.90;9.80;102030.00;;;;4883755;28;117210;-64
2022/11/11 08:26:28;;;;;;;2.77;2.57;;;9.70;99.90;10.00;102033.00;;;;4885960;28;88003;-64
2022/11/11 08:28:54;;;;;;;2.77;2.53;;;10.00;99.90;10.30;102028.00;;;;4882828;28;107972;-63
2022/11/11 08:31:20;;;;;;;5.70;3.03;;;10.20;99.90;10.60;102043.00;;;;4887516;28;117147;-63
2022/11/11 08:33:45;;;;;;;3.30;2.37;;;10.50;99.90;10.90;102035.00;;;;4883923;28;116382;-63
2022/11/11 08:36:11;;;;;;;3.97;3.20;;;10.80;99.90;11.20;102043.00;;;;4881871;28;87106;-64
2022/11/11 08:38:38;;;;;;;7.53;3.57;;;11.10;99.90;11.50;102045.00;;;;4882161;28;87868;-63
2022/11/11 08:41:06;;;;;;;6.33;3.60;;;11.40;99.90;11.80;102049.00;;;;4882437;28;88069;-63
2022/11/11 08:43:33;;;;;;;3.87;2.00;;;11.60;99.90;12.10;102044.00;;;;4880723;28;89108;-63
2022/11/11 08:46:00;;;;;;;2.30;2.10;;;11.90;99.90;12.30;102048.00;;;;4883930;28;87795;-63
2022/11/11 08:48:26;;;;;;;1.70;1.27;;;12.20;99.90;12.60;102047.00;;;;4882758;28;88280;-63
2022/11/11 08:50:52;;;;;;;2.80;0.70;;;12.50;99.90;12.80;102055.00;;;;4883777;28;88417;-64
2022/11/11 08:53:19;;;;;;;1.20;1.00;;;12.70;99.90;13.00;102045.00;;;;4880230;28;118189;-65
2022/11/11 08:55:45;;;;;;;1.90;0.67;;;12.90;99.90;13.20;102035.00;;;;4883569;28;110408;-63
2022/11/11 08:58:11;;;;;;;1.60;0.83;;;13.10;99.90;13.30;102048.00;;;;4882737;28;105793;-65
2022/11/11 09:00:37;;;;;;;0.80;0.60;;;13.30;99.90;13.40;102042.00;;;;4881750;28;94998;-65
2022/11/11 09:03:06;;;;;;;2.60;1.07;;;13.30;99.90;13.40;102044.00;;;;4881533;28;117238;-64
2022/11/11 09:05:33;;;;;;;0.87;0.70;;;13.40;99.90;13.30;102057.00;;;;4885382;28;87629;-64
2022/11/11 09:08:06;;;;;;;2.17;1.07;;;13.40;99.90;13.20;102065.00;;;;4882373;28;103426;-64
2022/11/11 09:10:34;;;;;;;1.70;0.50;;;13.30;99.90;13.10;102061.00;;;;4878909;28;89301;-63
2022/11/11 09:13:00;;;;;;;2.67;0.87;;;13.20;99.90;13.10;102056.00;;;;4880451;28;110726;-65
2022/11/11 09:15:26;;;;;;;0.93;0.83;;;13.10;99.90;13.00;102061.00;;;;4898518;28;105373;-64
2022/11/11 09:17:52;;;;;;;0.70;0.70;;;13.10;99.90;13.00;102072.00;;;;4887540;28;87831;-64
2022/11/11 09:20:19;;;;;;;0.53;0.40;;;13.00;99.90;13.00;102068.00;;;;4883657;28;104353;-63
2022/11/11 09:22:46;;;;;;;1.83;0.60;;;13.00;99.90;12.90;102071.00;;;;4881509;28;91372;-63
2022/11/11 09:25:12;;;;;;;0.93;0.77;;;13.00;99.90;12.90;102066.00;;;;4886231;28;92052;-63
2022/11/11 09:27:38;;;;;;;0.50;0.23;;;12.90;99.90;12.90;102072.00;;;;4887365;28;87808;-62
2022/11/11 09:30:05;;;;;;;0.90;0.47;;;12.90;99.90;12.90;102075.00;;;;4882061;28;117295;-66
2022/11/11 09:32:32;;;;;;;1.90;0.53;;;12.90;99.90;12.90;102073.00;;;;4876745;28;93364;-64
2022/11/11 09:34:59;;;;;;;0.73;0.73;;;12.90;99.90;13.00;102079.00;;;;4883841;28;87664;-63
2022/11/11 09:37:24;;;;;;;0.70;0.43;;;12.90;99.90;13.10;102074.00;;;;4881754;28;87872;-63
2022/11/11 09:39:50;;;;;;;1.27;0.80;;;13.10;99.90;13.20;102074.00;;;;4877859;28;98301;-64
2022/11/11 09:42:44;;;;;;;2.23;1.07;;;13.10;99.90;13.40;102073.00;;;;4879154;28;117713;-63
2022/11/11 09:45:22;;;;;;;0.47;0.43;;;13.30;99.90;13.70;102070.00;;;;4884387;28;103569;-63
2022/11/11 09:48:20;;;;;;;0.97;0.70;;;13.60;99.90;14.10;102069.00;;;;4881152;28;89810;-65
2022/11/11 09:50:53;;;;;;;1.33;0.73;;;13.90;99.90;14.30;102074.00;;;;4891892;28;101471;-62
2022/11/11 09:53:50;;;;;;;1.20;0.73;;;14.20;99.90;14.60;102077.00;;;;4887340;28;87904;-63
2022/11/11 09:56:22;;;;;;;0.50;0.50;;;14.50;99.90;15.00;102073.00;;;;4877212;28;88099;-63
2022/11/11 09:59:01;;;;;;;2.13;0.87;;;14.80;99.90;15.30;102086.00;;;;4890463;28;89027;-63
2022/11/11 10:01:33;;;;;;;0.43;0.43;;;15.10;99.90;15.70;102084.00;;;;4878061;28;112147;-63
2022/11/11 10:04:33;;;;;;;1.25;0.63;;;15.40;99.90;16.10;102093.00;;;;4894712;28;101277;-63
2022/11/11 10:07:42;;;;;;;0.47;0.40;;;15.80;99.90;16.50;102096.00;;;;4876780;28;91688;-63
2022/11/11 10:10:16;;;;;;;1.30;0.63;;;16.20;99.90;16.70;102097.00;;;;4875995;28;102025;-64
2022/11/11 10:12:49;;;;;;;0.93;0.70;;;16.50;99.40;16.80;102091.00;;;;4879325;28;101722;-63
2022/11/11 10:15:16;;;;;;;0.50;0.30;;;16.70;97.60;16.90;102094.00;;;;4872771;28;93309;-63
2022/11/11 10:18:18;;;;;;;5.20;0.45;;;16.80;97.10;16.80;102095.00;;;;4892491;28;92237;-62
2022/11/11 10:20:53;;;;;;;5.15;0.82;;;16.70;96.50;16.80;102101.00;;;;4880898;28;93062;-62
2022/11/11 10:23:26;;;;;;;0.88;0.57;;;16.70;95.90;16.80;102103.00;;;;4878500;28;93420;-62
2022/11/11 10:25:56;;;;;;;1.40;0.60;;;16.70;95.20;16.90;102110.00;;;;4873943;28;116383;-64
2022/11/11 10:28:30;;;;;;;1.45;0.57;;;16.80;94.50;17.00;102096.00;;;;4877338;28;93040;-64
2022/11/11 10:30:56;;;;;;;0.60;0.52;;;16.90;93.10;17.20;102097.00;;;;4878142;28;92900;-63
2022/11/11 10:33:29;;;;;;;1.13;0.50;;;17.00;92.80;17.40;102094.00;;;;4876201;28;122726;-64
2022/11/11 10:35:59;;;;;;;2.13;0.85;;;17.20;92.40;17.50;102105.00;;;;4875528;28;93320;-64
2022/11/11 10:38:49;;;;;;;0.73;0.30;;;17.30;92.10;17.30;102096.00;;;;4879306;28;92819;-63
2022/11/11 10:41:22;;;;;;;1.05;0.75;;;17.30;91.80;17.20;102103.00;;;;4891005;28;92949;-63
2022/11/11 10:43:48;;;;;;;0.40;0.40;;;17.20;90.90;17.10;102094.00;;;;4892373;28;92784;-63
2022/11/11 10:46:31;;;;;;;1.67;0.47;;;17.10;90.50;17.00;102091.00;;;;4876011;28;121032;-63
2022/11/11 10:49:06;;;;;;;3.03;0.85;;;17.00;90.70;16.90;102085.00;;;;4880200;28;93014;-63
2022/11/11 10:51:55;;;;;;;0.43;0.32;;;16.60;90.70;16.90;102090.00;;;;4878889;28;93854;-64
2022/11/11 10:54:34;;;;;;;0.47;0.47;;;16.80;90.90;17.10;102089.00;;;;4878291;28;116135;-63
2022/11/11 10:57:32;;;;;;;2.08;0.63;;;16.90;91.50;17.30;102097.00;;;;4890960;28;117468;-64
2022/11/11 11:00:11;;;;;;;1.95;0.68;;;17.10;91.20;17.60;102089.00;;;;4892753;28;102585;-64
2022/11/11 11:03:15;;;;;;;0.68;0.57;;;17.30;91.00;17.80;102100.00;;;;4876741;28;100049;-64
2022/11/11 11:06:07;;;;;;;0.60;0.32;;;17.60;91.10;17.90;102090.00;;;;4873906;28;93277;-63
2022/11/11 11:08:58;;;;;;;1.67;0.57;;;17.70;90.30;18.00;102095.00;;;;4892897;28;107311;-65
2022/11/11 11:11:33;;;;;;;1.23;0.70;;;17.80;87.60;18.20;102087.00;;;;4886238;28;104267;-63
2022/11/11 11:14:05;;;;;;;0.88;0.45;;;18.00;88.00;18.30;102083.00;;;;4876819;28;93214;-64
2022/11/11 11:16:50;;;;;;;2.10;0.40;;;18.10;85.70;18.50;102082.00;;;;4892582;28;94511;-63
2022/11/11 11:19:27;;;;;;;1.33;0.73;;;18.30;83.20;18.60;102097.00;;;;4880726;28;93911;-65
2022/11/11 11:21:55;;;;;;;5.63;0.50;;;18.40;83.00;18.50;102095.00;;;;4892021;28;92889;-63
2022/11/11 11:24:32;;;;;;;3.53;0.85;;;18.40;79.30;18.50;102096.00;;;;4878277;28;92734;-64
2022/11/11 11:27:02;;;;;;;2.92;0.35;;;18.40;78.80;18.50;102089.00;;;;4884226;28;93695;-63
2022/11/11 11:29:31;;;;;;;3.17;0.90;;;18.40;78.40;18.60;102099.00;;;;4879741;28;93711;-64
2022/11/11 11:32:33;;;;;;;4.78;0.80;;;18.40;77.60;18.80;102090.00;;;;4877903;28;92987;-63
2022/11/11 11:34:58;;;;;;;2.17;0.55;;;18.50;76.20;18.90;102093.00;;;;4878577;28;107259;-63
2022/11/11 11:37:25;;;;;;;0.47;0.30;;;18.70;74.70;19.10;102095.00;;;;4877592;28;122084;-62
2022/11/11 11:40:05;;;;;;;0.50;0.35;;;18.80;74.00;18.90;102100.00;;;;4878468;28;109981;-64
2022/11/11 11:42:37;;;;;;;0.57;0.40;;;18.80;71.60;18.70;102096.00;;;;4878793;28;104614;-63
2022/11/11 11:45:28;;;;;;;0.43;0.28;;;18.60;71.30;18.40;102089.00;;;;4880714;28;93922;-63
2022/11/11 11:48:23;;;;;;;1.75;0.45;;;18.40;71.10;18.00;102089.00;;;;4882348;28;94060;-63
2022/11/11 11:50:56;;;;;;;0.70;0.40;;;18.40;72.20;17.80;102085.00;;;;4883096;28;98112;-64
2022/11/11 11:53:38;;;;;;;2.72;0.50;;;17.80;71.80;17.50;102081.00;;;;4886282;28;96649;-63
2022/11/11 11:56:19;;;;;;;0.82;0.47;;;17.60;73.10;17.40;102076.00;;;;4895920;28;101460;-63
2022/11/11 11:59:15;;;;;;;0.65;0.47;;;17.40;74.70;17.20;102074.00;;;;4874437;28;119493;-63
2022/11/11 12:02:16;;;;;;;1.02;0.45;;;17.30;75.20;17.10;102083.00;;;;4885301;28;93316;-63
2022/11/11 12:05:13;;;;;;;5.13;0.93;;;17.10;74.50;16.90;102084.00;;;;4880614;28;92644;-63
2022/11/11 12:08:02;;;;;;;0.65;0.60;;;16.90;76.00;16.80;102078.00;;;;4876384;28;93248;-64
2022/11/11 12:11:07;;;;;;;0.68;0.38;;;16.80;76.40;16.70;102075.00;;;;4883215;28;108171;-64
2022/11/11 12:13:45;;;;;;;0.52;0.32;;;16.70;76.90;16.70;102070.00;;;;4883108;28;93747;-64
2022/11/11 12:16:37;;;;;;;1.23;0.75;;;16.70;78.20;16.70;102073.00;;;;4873726;28;93192;-65
2022/11/11 12:19:51;;;;;;;1.45;0.40;;;16.60;78.50;16.50;102066.00;;;;4877750;28;101200;-64